Stratton, Vermont
Current Conditions -  °F | °C
As of 8:06 AM on Monday 24 Nov 2014 (Local Time) from KDDH Reporting Station
Light Rain Light Rain  
Wind Chill: 59°   Ceiling: 3400
Heat Index: 59°   Visibility: 4mi
Dew Point: 53°   Wind: 21mph
Humidity: 81%   Direction: 130°SE
Pressure: 29.61"   Gusts: 33mph
Location:  43.0569°N, 72.9254°W
Report Text: KDDH 241306Z AUTO 13018G29KT 4SM -RA FEW021 SCT029 OVC034 15/12 A2961 RMK AO2 PK WND 13029/1259 P0000 T01500117
Loading
Personal Weather Stations






























Interactive Weather Map New forecast layout! Learn more

10-Day Weather Forecast

Advertisements
Track Severe Weather on mobile